Terminal Aerodrome Forecast
Issued by NWS

Home | Current Version | Previous Version | Graphics & Text | Print | Product List | Glossary On
Versions: 1 2 3 4 5 6 7 8 9 10 11 12 13 14 15 16 17 18 19 20 21
633
FTUS43 KGRB 291449 AAB
TAFMTW
TAF AMD
KMTW 291449Z 2915/3012 05007KT P6SM VCSH BKN012 OVC030
     FM292000 06010KT P6SM VCSH BKN030
     FM300300 04006KT P6SM SCT060 BKN120=

USA.gov is the U.S. government's official web portal to all federal, state and local government web resources and services.